Tustin, Wisconsin
Current Conditions -  °F | °C
As of 4:55 PM on Saturday 25 Oct 2014 (Local Time) from KPCZ Reporting Station
Clear Clear  
Wind Chill: 63°   Ceiling: Unl
Heat Index: 63°   Visibility: 10mi
Dew Point: 25°   Wind: 14mph
Humidity: 24%   Direction: 280°W
Pressure: 29.89"   Gusts: 23mph
Location:  44.2033°N, 88.9001°W
Report Text: KPCZ 252155Z AUTO 28012G20KT 10SM CLR 17/M04 A2989 RMK AO2 T01721039
Loading
Personal Weather Stations






























Interactive Weather Map
Tropical Storm Tracking
New forecast layout! Learn more

10-Day Weather Forecast

Advertisements
Track Severe Weather on mobile